Wetterstation Vordersexau
Wetterdaten: Woche 27.06.11 - 03.07.11 (KW26)
Datum Zeit Temp. A. Feuchte A. Luftdruck Regen Wind Richtung Taupunkt Windchill Windben
27.06.2011 00:00 16,6 C 82 % 1018,7 hPa 0,0 l/m 0,0 km/h O-SO 13,5 C 16,6 C 0,0 km/h
27.06.2011 01:00 15,4 C 85 % 1018,6 hPa 0,0 l/m 0,0 km/h NO 12,9 C 15,4 C 0,0 km/h
27.06.2011 02:00 14,8 C 86 % 1018,3 hPa 0,0 l/m 0,0 km/h NO 12,5 C 14,8 C 0,0 km/h
27.06.2011 03:00 13,6 C 86 % 1018,3 hPa 0,0 l/m 0,0 km/h O-NO 11,3 C 13,6 C 0,0 km/h
27.06.2011 04:00 13,9 C 86 % 1018,3 hPa 0,0 l/m 0,0 km/h O-NO 11,6 C 13,9 C 0,0 km/h
27.06.2011 05:00 14,4 C 85 % 1018,4 hPa 0,0 l/m 0,0 km/h NO 11,9 C 14,4 C 0,0 km/h
27.06.2011 06:00 14,6 C 85 % 1018,6 hPa 0,0 l/m 0,0 km/h NO 12,1 C 14,6 C 0,0 km/h
27.06.2011 07:00 17,1 C 86 % 1018,2 hPa 0,0 l/m 0,0 km/h N-NW 14,7 C 17,1 C 0,0 km/h
27.06.2011 08:00 27,6 C 59 % 1017,8 hPa 0,0 l/m 0,0 km/h W 18,8 C 27,6 C 0,0 km/h
27.06.2011 09:00 30,5 C 50 % 1017,7 hPa 0,0 l/m 0,0 km/h N-NO 18,9 C 30,5 C 0,0 km/h
27.06.2011 10:00 31,8 C 47 % 1017,3 hPa 0,0 l/m 0,0 km/h W 19,1 C 31,8 C 0,0 km/h
27.06.2011 11:00 33,1 C 43 % 1017,1 hPa 0,0 l/m 0,0 km/h W 18,8 C 33,1 C 0,0 km/h
27.06.2011 12:00 31,9 C 47 % 1016,4 hPa 0,0 l/m 0,0 km/h W-NW 19,2 C 31,9 C 0,0 km/h
27.06.2011 13:00 32,8 C 46 % 1016,2 hPa 0,0 l/m 13,0 km/h W 19,6 C 32,8 C 7,2 km/h
27.06.2011 14:00 33,9 C 44 % 1015,5 hPa 0,0 l/m 7,8 km/h W 19,9 C 33,9 C 4,3 km/h
27.06.2011 15:00 36,2 C 36 % 1015,1 hPa 0,0 l/m 4,5 km/h W-NW 18,7 C 36,2 C 2,5 km/h
27.06.2011 16:00 39,3 C 32 % 1014,7 hPa 0,0 l/m 0,0 km/h N-NO 19,5 C 39,3 C 0,0 km/h
27.06.2011 17:00 41,0 C 29 % 1014,3 hPa 0,0 l/m 8,4 km/h N-NW 19,4 C 41,0 C 4,7 km/h
27.06.2011 18:00 41,1 C 28 % 1014,0 hPa 0,0 l/m 0,0 km/h NO 18,9 C 41,1 C 0,0 km/h
27.06.2011 19:00 36,2 C 34 % 1014,0 hPa 0,0 l/m 0,0 km/h NO 17,8 C 36,2 C 0,0 km/h
27.06.2011 20:00 29,1 C 57 % 1014,0 hPa 0,0 l/m 0,0 km/h O-SO 19,7 C 29,1 C 0,0 km/h
27.06.2011 21:00 25,3 C 66 % 1014,3 hPa 0,0 l/m 0,0 km/h O-SO 18,5 C 25,3 C 0,0 km/h
27.06.2011 22:00 23,2 C 71 % 1014,5 hPa 0,0 l/m 0,0 km/h O-SO 17,6 C 23,2 C 0,0 km/h
27.06.2011 23:00 20,9 C 79 % 1014,8 hPa 0,0 l/m 0,0 km/h S-SO 17,1 C 20,9 C 0,0 km/h
28.06.2011 00:00 21,2 C 78 % 1014,5 hPa 0,0 l/m 1,9 km/h O-SO 17,2 C 21,2 C 1,1 km/h
28.06.2011 01:00 20,8 C 77 % 1014,3 hPa 0,0 l/m 0,0 km/h NO 16,6 C 20,8 C 0,0 km/h
28.06.2011 02:00 19,6 C 80 % 1014,4 hPa 0,0 l/m 0,0 km/h NO 16,1 C 19,6 C 0,0 km/h
28.06.2011 03:00 18,4 C 82 % 1014,6 hPa 0,0 l/m 0,0 km/h NO 15,3 C 18,4 C 0,0 km/h
28.06.2011 04:00 17,6 C 84 % 1014,3 hPa 0,0 l/m 0,0 km/h NO 14,9 C 17,6 C 0,0 km/h
28.06.2011 05:00 17,4 C 85 % 1014,4 hPa 0,0 l/m 0,0 km/h SO 14,8 C 17,4 C 0,0 km/h
28.06.2011 06:00 18,2 C 85 % 1014,7 hPa 0,0 l/m 0,0 km/h N-NW 15,6 C 18,2 C 0,0 km/h
28.06.2011 07:00 20,4 C 81 % 1015,3 hPa 0,0 l/m 0,0 km/h N-NO 17,0 C 20,4 C 0,0 km/h
28.06.2011 08:00 30,1 C 55 % 1015,2 hPa 0,0 l/m 0,0 km/h W 20,0 C 30,1 C 0,0 km/h
28.06.2011 09:00 33,2 C 46 % 1015,3 hPa 0,0 l/m 0,0 km/h S-SW 20,0 C 33,2 C 0,0 km/h
28.06.2011 10:00 33,9 C 46 % 1015,0 hPa 0,0 l/m 0,0 km/h N-NO 20,6 C 33,9 C 0,0 km/h
28.06.2011 11:00 35,4 C 43 % 1014,7 hPa 0,0 l/m 0,0 km/h W 20,9 C 35,4 C 0,0 km/h
28.06.2011 12:00 33,6 C 45 % 1014,2 hPa 0,0 l/m 0,0 km/h W-NW 20,0 C 33,6 C 0,0 km/h
28.06.2011 13:00 34,4 C 48 % 1013,7 hPa 0,0 l/m 0,0 km/h N-NO 21,8 C 34,4 C 0,0 km/h
28.06.2011 14:00 35,3 C 38 % 1013,2 hPa 0,0 l/m 3,2 km/h N-NW 18,8 C 35,3 C 1,8 km/h
28.06.2011 15:00 37,5 C 34 % 1012,8 hPa 0,0 l/m 7,1 km/h NW 18,9 C 37,5 C 4,0 km/h
28.06.2011 16:00 40,9 C 29 % 1012,3 hPa 0,0 l/m 8,4 km/h N-NO 19,3 C 40,9 C 4,7 km/h
28.06.2011 17:00 37,1 C 31 % 1012,0 hPa 0,0 l/m 2,6 km/h NO 17,1 C 37,1 C 1,4 km/h
28.06.2011 18:00 39,8 C 30 % 1011,4 hPa 0,0 l/m 1,9 km/h N-NW 18,9 C 39,8 C 1,1 km/h
28.06.2011 19:00 35,9 C 39 % 1010,6 hPa 0,0 l/m 0,0 km/h W 19,7 C 35,9 C 0,0 km/h
28.06.2011 20:00 29,4 C 58 % 1010,7 hPa 0,0 l/m 0,0 km/h N-NO 20,3 C 29,4 C 0,0 km/h
28.06.2011 21:00 25,8 C 70 % 1011,0 hPa 0,0 l/m 0,0 km/h O 19,9 C 25,8 C 0,0 km/h
28.06.2011 22:00 23,8 C 75 % 1011,2 hPa 0,0 l/m 0,0 km/h SO 19,1 C 23,8 C 0,0 km/h
28.06.2011 23:00 22,2 C 79 % 1011,4 hPa 0,0 l/m 0,0 km/h SO 18,4 C 22,2 C 0,0 km/h
29.06.2011 00:00 21,9 C 78 % 1011,5 hPa 0,0 l/m 0,0 km/h SO 17,9 C 21,9 C 0,0 km/h
29.06.2011 01:00 21,1 C 78 % 1011,7 hPa 0,0 l/m 0,0 km/h NO 17,1 C 21,1 C 0,0 km/h
29.06.2011 02:00 20,6 C 79 % 1011,7 hPa 0,0 l/m 0,0 km/h S-SO 16,8 C 20,6 C 0,0 km/h
29.06.2011 03:00 19,8 C 81 % 1012,0 hPa 0,0 l/m 0,0 km/h O-NO 16,4 C 19,8 C 0,0 km/h
29.06.2011 04:00 19,9 C 80 % 1012,1 hPa 0,0 l/m 0,0 km/h O-SO 16,3 C 19,9 C 0,0 km/h
29.06.2011 05:00 19,4 C 81 % 1012,4 hPa 0,0 l/m 0,0 km/h N 16,1 C 19,4 C 0,0 km/h
29.06.2011 06:00 20,1 C 81 % 1013,1 hPa 0,0 l/m 0,0 km/h SO 16,7 C 20,1 C 0,0 km/h
29.06.2011 07:00 22,3 C 77 % 1013,6 hPa 0,0 l/m 0,0 km/h W 18,1 C 22,3 C 0,0 km/h
29.06.2011 08:00 26,6 C 64 % 1015,3 hPa 0,0 l/m 3,2 km/h N-NO 19,2 C 26,6 C 1,8 km/h
29.06.2011 09:00 21,6 C 71 % 1016,3 hPa 0,0 l/m 0,0 km/h N-NW 16,1 C 21,6 C 0,0 km/h
29.06.2011 10:00 20,6 C 76 % 1016,9 hPa 0,0 l/m 0,0 km/h S-SW 16,2 C 20,6 C 0,0 km/h
29.06.2011 11:00 20,6 C 79 % 1016,8 hPa 0,0 l/m 5,2 km/h S-SO 16,8 C 20,6 C 2,9 km/h
29.06.2011 12:00 23,7 C 75 % 1015,8 hPa 0,0 l/m 0,0 km/h W-NW 19,0 C 23,7 C 0,0 km/h
29.06.2011 13:00 22,1 C 77 % 1016,3 hPa 0,0 l/m 0,0 km/h O-NO 17,9 C 22,1 C 0,0 km/h
29.06.2011 14:00 23,2 C 74 % 1016,3 hPa 0,0 l/m 0,0 km/h S-SO 18,3 C 23,2 C 0,0 km/h
29.06.2011 15:00 24,1 C 68 % 1016,2 hPa 0,0 l/m 0,0 km/h N-NO 17,8 C 24,1 C 0,0 km/h
29.06.2011 16:00 24,9 C 61 % 1016,1 hPa 0,0 l/m 0,0 km/h N 16,8 C 24,9 C 0,0 km/h
29.06.2011 17:00 24,6 C 63 % 1015,9 hPa 0,0 l/m 0,0 km/h N-NO 17,1 C 24,6 C 0,0 km/h
29.06.2011 18:00 20,8 C 77 % 1015,7 hPa 0,0 l/m 0,0 km/h N-NO 16,6 C 20,8 C 0,0 km/h
29.06.2011 19:00 18,4 C 84 % 1016,3 hPa 0,4 l/m 12,3 km/h NO 15,6 C 16,1 C 6,8 km/h
29.06.2011 20:00 17,6 C 85 % 1016,7 hPa 1,1 l/m 0,0 km/h N-NO 15,0 C 17,6 C 0,0 km/h
29.06.2011 21:00 16,9 C 85 % 1016,8 hPa 0,4 l/m 0,0 km/h NO 14,4 C 16,9 C 0,0 km/h
29.06.2011 22:00 16,1 C 85 % 1017,4 hPa 1,8 l/m 0,0 km/h N-NO 13,6 C 16,1 C 0,0 km/h
29.06.2011 23:00 15,8 C 86 % 1017,5 hPa 0,7 l/m 0,0 km/h N-NW 13,5 C 15,8 C 0,0 km/h
30.06.2011 00:00 15,6 C 86 % 1017,8 hPa 0,0 l/m 0,0 km/h W-NW 13,3 C 15,6 C 0,0 km/h
30.06.2011 01:00 15,2 C 85 % 1018,3 hPa 0,7 l/m 0,0 km/h N 12,7 C 15,2 C 0,0 km/h
30.06.2011 02:00 14,9 C 85 % 1018,6 hPa 0,4 l/m 0,0 km/h W-NW 12,4 C 14,9 C 0,0 km/h
30.06.2011 03:00 14,7 C 85 % 1018,8 hPa 0,4 l/m 0,0 km/h W 12,2 C 14,7 C 0,0 km/h
30.06.2011 04:00 14,4 C 85 % 1018,9 hPa 0,0 l/m 0,0 km/h W 11,9 C 14,4 C 0,0 km/h
30.06.2011 05:00 14,4 C 85 % 1019,2 hPa 0,0 l/m 0,0 km/h W 11,9 C 14,4 C 0,0 km/h
30.06.2011 06:00 13,4 C 85 % 1019,8 hPa 0,0 l/m 0,0 km/h S-SW 10,9 C 13,4 C 0,0 km/h
30.06.2011 07:00 14,6 C 83 % 1019,9 hPa 0,0 l/m 0,0 km/h SW 11,7 C 14,6 C 0,0 km/h
30.06.2011 08:00 18,3 C 82 % 1020,2 hPa 0,0 l/m 0,0 km/h NW 15,2 C 18,3 C 0,0 km/h
30.06.2011 09:00 23,0 C 61 % 1020,3 hPa 0,0 l/m 5,8 km/h W 15,1 C 23,0 C 3,2 km/h
30.06.2011 10:00 24,6 C 52 % 1020,6 hPa 0,0 l/m 0,0 km/h N 14,1 C 24,6 C 0,0 km/h
30.06.2011 11:00 23,9 C 46 % 1020,7 hPa 0,0 l/m 2,6 km/h N-NO 11,6 C 23,9 C 1,4 km/h
30.06.2011 12:00 22,3 C 47 % 1020,8 hPa 0,0 l/m 0,0 km/h W-NW 10,4 C 22,3 C 0,0 km/h
30.06.2011 13:00 24,0 C 43 % 1020,5 hPa 0,0 l/m 4,5 km/h N-NW 10,6 C 24,0 C 2,5 km/h
30.06.2011 14:00 24,3 C 41 % 1020,5 hPa 0,0 l/m 0,0 km/h N-NO 10,2 C 24,3 C 0,0 km/h
30.06.2011 15:00 25,1 C 38 % 1020,2 hPa 0,0 l/m 0,0 km/h W-SW 9,8 C 25,1 C 0,0 km/h
30.06.2011 16:00 27,0 C 37 % 1019,9 hPa 0,0 l/m 7,8 km/h N-NW 11,1 C 26,7 C 4,3 km/h
30.06.2011 17:00 28,8 C 30 % 1019,6 hPa 0,0 l/m 0,0 km/h W-NW 9,5 C 28,8 C 0,0 km/h
30.06.2011 18:00 28,7 C 27 % 1019,3 hPa 0,0 l/m 3,9 km/h N-NO 7,8 C 28,7 C 2,2 km/h
30.06.2011 19:00 23,4 C 38 % 1019,3 hPa 0,0 l/m 0,0 km/h N-NO 8,3 C 23,4 C 0,0 km/h
30.06.2011 20:00 19,1 C 51 % 1019,6 hPa 0,0 l/m 3,2 km/h SO 8,7 C 19,1 C 1,8 km/h
30.06.2011 21:00 15,3 C 67 % 1019,6 hPa 0,0 l/m 0,0 km/h O-SO 9,2 C 15,3 C 0,0 km/h
30.06.2011 22:00 13,1 C 75 % 1019,9 hPa 0,0 l/m 0,0 km/h SO 8,8 C 13,1 C 0,0 km/h
30.06.2011 23:00 12,4 C 78 % 1020,2 hPa 0,0 l/m 0,0 km/h SO 8,7 C 12,4 C 0,0 km/h
01.07.2011 00:00 11,5 C 82 % 1020,2 hPa 0,0 l/m 0,0 km/h O-NO 8,5 C 11,5 C 0,0 km/h
01.07.2011 01:00 10,5 C 83 % 1019,9 hPa 0,0 l/m 0,0 km/h O-SO 7,7 C 10,5 C 0,0 km/h
01.07.2011 02:00 9,8 C 85 % 1019,8 hPa 0,0 l/m 0,0 km/h NO 7,4 C 9,8 C 0,0 km/h
01.07.2011 03:00 9,2 C 86 % 1019,6 hPa 0,0 l/m 0,0 km/h NO 7,0 C 9,2 C 0,0 km/h
01.07.2011 04:00 8,9 C 86 % 1019,7 hPa 0,0 l/m 0,0 km/h O-NO 6,7 C 8,9 C 0,0 km/h
01.07.2011 05:00 8,4 C 86 % 1019,7 hPa 0,0 l/m 0,0 km/h O-NO 6,2 C 8,4 C 0,0 km/h
01.07.2011 06:00 8,5 C 86 % 1020,1 hPa 0,0 l/m 0,0 km/h O-SO 6,3 C 8,5 C 0,0 km/h
01.07.2011 07:00 11,1 C 86 % 1020,1 hPa 0,0 l/m 0,0 km/h S-SO 8,8 C 11,1 C 0,0 km/h
01.07.2011 08:00 14,8 C 82 % 1020,5 hPa 0,0 l/m 0,0 km/h N-NW 11,8 C 14,8 C 0,0 km/h
01.07.2011 09:00 18,3 C 69 % 1020,4 hPa 0,0 l/m 0,0 km/h W 12,5 C 18,3 C 0,0 km/h
01.07.2011 10:00 18,3 C 64 % 1020,6 hPa 0,0 l/m 0,0 km/h N-NO 11,4 C 18,3 C 0,0 km/h
01.07.2011 11:00 20,4 C 57 % 1020,6 hPa 0,0 l/m 1,9 km/h N-NW 11,6 C 20,4 C 1,1 km/h
01.07.2011 12:00 20,8 C 52 % 1020,3 hPa 0,0 l/m 5,2 km/h NW 10,6 C 20,8 C 2,9 km/h
01.07.2011 13:00 22,4 C 45 % 1020,1 hPa 0,0 l/m 5,8 km/h N-NW 9,9 C 22,4 C 3,2 km/h
01.07.2011 14:00 22,8 C 42 % 1020,1 hPa 0,0 l/m 3,2 km/h NO 9,2 C 22,8 C 1,8 km/h
01.07.2011 15:00 18,4 C 52 % 1020,3 hPa 0,0 l/m 1,9 km/h N-NO 8,4 C 18,4 C 1,1 km/h
01.07.2011 16:00 22,6 C 46 % 1020,0 hPa 0,0 l/m 10,4 km/h O-SO 10,4 C 21,4 C 5,8 km/h
01.07.2011 17:00 26,9 C 35 % 1019,7 hPa 0,0 l/m 8,4 km/h N-NO 10,1 C 26,5 C 4,7 km/h
01.07.2011 18:00 20,7 C 41 % 1019,4 hPa 0,0 l/m 0,0 km/h N-NO 7,0 C 20,7 C 0,0 km/h
01.07.2011 19:00 21,6 C 39 % 1018,8 hPa 0,0 l/m 0,0 km/h N-NO 7,0 C 21,6 C 0,0 km/h
01.07.2011 20:00 17,1 C 52 % 1018,8 hPa 0,0 l/m 0,0 km/h O-NO 7,2 C 17,1 C 0,0 km/h
01.07.2011 21:00 13,3 C 67 % 1018,7 hPa 0,0 l/m 0,0 km/h O-SO 7,3 C 13,3 C 0,0 km/h
01.07.2011 22:00 11,1 C 75 % 1019,0 hPa 0,0 l/m 0,0 km/h O-NO 6,8 C 11,1 C 0,0 km/h
01.07.2011 23:00 10,2 C 78 % 1018,8 hPa 0,0 l/m 0,0 km/h O-SO 6,5 C 10,2 C 0,0 km/h
02.07.2011 00:00 9,4 C 81 % 1018,7 hPa 0,0 l/m 0,0 km/h O-SO 6,3 C 9,4 C 0,0 km/h
02.07.2011 01:00 8,9 C 84 % 1018,6 hPa 0,0 l/m 0,0 km/h O-NO 6,3 C 8,9 C 0,0 km/h
02.07.2011 02:00 8,1 C 84 % 1018,2 hPa 0,0 l/m 0,0 km/h SO 5,6 C 8,1 C 0,0 km/h
02.07.2011 03:00 7,2 C 85 % 1018,1 hPa 0,0 l/m 0,0 km/h NO 4,9 C 7,2 C 0,0 km/h
02.07.2011 04:00 7,2 C 86 % 1017,9 hPa 0,0 l/m 0,0 km/h S-SO 5,0 C 7,2 C 0,0 km/h
02.07.2011 05:00 6,6 C 86 % 1017,4 hPa 0,0 l/m 1,3 km/h O-NO 4,4 C 6,6 C 0,7 km/h
02.07.2011 06:00 6,9 C 86 % 1016,7 hPa 0,0 l/m 0,0 km/h SO 4,7 C 6,9 C 0,0 km/h
02.07.2011 07:00 9,1 C 86 % 1016,5 hPa 0,0 l/m 0,0 km/h N-NO 6,9 C 9,1 C 0,0 km/h
02.07.2011 08:00 20,1 C 56 % 1016,2 hPa 0,0 l/m 0,0 km/h NW 11,0 C 20,1 C 0,0 km/h
02.07.2011 09:00 21,5 C 50 % 1016,2 hPa 0,0 l/m 0,0 km/h NW 10,6 C 21,5 C 0,0 km/h
02.07.2011 10:00 22,4 C 49 % 1015,9 hPa 0,0 l/m 0,6 km/h W-NW 11,2 C 22,4 C 0,4 km/h
02.07.2011 11:00 20,3 C 50 % 1015,4 hPa 0,0 l/m 16,2 km/h N-NO 9,5 C 17,3 C 9,0 km/h
02.07.2011 12:00 22,2 C 43 % 1015,2 hPa 0,0 l/m 0,0 km/h W 9,0 C 22,2 C 0,0 km/h
02.07.2011 13:00 21,5 C 41 % 1014,7 hPa 0,0 l/m 3,9 km/h NO 7,7 C 21,5 C 2,2 km/h
02.07.2011 14:00 23,3 C 35 % 1014,1 hPa 0,0 l/m 10,4 km/h N-NO 7,0 C 22,2 C 5,8 km/h
02.07.2011 15:00 22,9 C 33 % 1013,8 hPa 0,0 l/m 0,6 km/h N-NO 5,8 C 22,9 C 0,4 km/h
02.07.2011 16:00 25,5 C 32 % 1013,2 hPa 0,0 l/m 0,0 km/h N 7,6 C 25,5 C 0,0 km/h
02.07.2011 17:00 24,1 C 32 % 1013,3 hPa 0,0 l/m 4,5 km/h N-NW 6,4 C 24,1 C 2,5 km/h
02.07.2011 18:00 26,6 C 28 % 1013,1 hPa 0,0 l/m 3,2 km/h N-NO 6,6 C 26,6 C 1,8 km/h
02.07.2011 19:00 23,1 C 32 % 1013,1 hPa 0,0 l/m 0,6 km/h N-NO 5,5 C 23,1 C 0,4 km/h
02.07.2011 20:00 18,6 C 40 % 1013,3 hPa 0,0 l/m 0,0 km/h N-NO 4,7 C 18,6 C 0,0 km/h
02.07.2011 21:00 15,3 C 53 % 1013,6 hPa 0,0 l/m 0,0 km/h O-SO 5,8 C 15,3 C 0,0 km/h
02.07.2011 22:00 12,8 C 64 % 1014,0 hPa 0,0 l/m 0,0 km/h O-NO 6,2 C 12,8 C 0,0 km/h
02.07.2011 23:00 11,2 C 70 % 1014,3 hPa 0,0 l/m 0,0 km/h O-SO 5,9 C 11,2 C 0,0 km/h
03.07.2011 00:00 10,8 C 75 % 1014,0 hPa 0,0 l/m 0,0 km/h O-SO 6,5 C 10,8 C 0,0 km/h
03.07.2011 01:00 10,6 C 77 % 1014,0 hPa 0,0 l/m 0,0 km/h O-NO 6,7 C 10,6 C 0,0 km/h
03.07.2011 02:00 9,6 C 80 % 1013,9 hPa 0,0 l/m 0,0 km/h O-SO 6,3 C 9,6 C 0,0 km/h
03.07.2011 03:00 8,4 C 82 % 1013,5 hPa 0,0 l/m 0,0 km/h O 5,5 C 8,4 C 0,0 km/h
03.07.2011 04:00 7,6 C 84 % 1013,5 hPa 0,0 l/m 0,0 km/h O-SO 5,1 C 7,6 C 0,0 km/h
03.07.2011 05:00 6,8 C 85 % 1013,5 hPa 0,0 l/m 0,0 km/h O-SO 4,5 C 6,8 C 0,0 km/h
03.07.2011 06:00 7,1 C 86 % 1013,5 hPa 0,0 l/m 0,0 km/h SO 4,9 C 7,1 C 0,0 km/h
03.07.2011 07:00 9,8 C 85 % 1013,4 hPa 0,0 l/m 0,0 km/h S-SO 7,4 C 9,8 C 0,0 km/h
03.07.2011 08:00 21,4 C 53 % 1013,3 hPa 0,0 l/m 0,0 km/h N-NO 11,4 C 21,4 C 0,0 km/h
03.07.2011 09:00 23,4 C 45 % 1013,7 hPa 0,0 l/m 0,0 km/h NW 10,8 C 23,4 C 0,0 km/h
03.07.2011 10:00 24,0 C 43 % 1013,6 hPa 0,0 l/m 11,0 km/h NO 10,6 C 22,8 C 6,1 km/h
03.07.2011 11:00 25,0 C 36 % 1013,5 hPa 0,0 l/m 0,0 km/h W-NW 8,9 C 25,0 C 0,0 km/h
03.07.2011 12:00 22,4 C 41 % 1013,5 hPa 0,0 l/m 0,0 km/h O-NO 8,5 C 22,4 C 0,0 km/h
03.07.2011 13:00 23,3 C 40 % 1013,2 hPa 0,0 l/m 0,0 km/h NW 8,9 C 23,3 C 0,0 km/h
03.07.2011 14:00 23,9 C 39 % 1013,2 hPa 0,0 l/m 13,6 km/h W 9,1 C 22,2 C 7,6 km/h
03.07.2011 15:00 26,2 C 37 % 1012,9 hPa 0,0 l/m 9,1 km/h N-NW 10,3 C 25,6 C 5,0 km/h
03.07.2011 16:00 29,8 C 30 % 1012,7 hPa 0,0 l/m 0,0 km/h N-NO 10,3 C 29,8 C 0,0 km/h
03.07.2011 17:00 30,7 C 26 % 1012,2 hPa 0,0 l/m 0,0 km/h N-NO 9,0 C 30,7 C 0,0 km/h
03.07.2011 18:00 30,8 C 22 % 1011,9 hPa 0,0 l/m 0,0 km/h N-NO 6,6 C 30,8 C 0,0 km/h
03.07.2011 19:00 25,5 C 27 % 1011,6 hPa 0,0 l/m 12,3 km/h N-NO 5,1 C 24,3 C 6,8 km/h
03.07.2011 20:00 20,9 C 36 % 1011,5 hPa 0,0 l/m 0,0 km/h NO 5,3 C 20,9 C 0,0 km/h
03.07.2011 21:00 16,5 C 51 % 1011,8 hPa 0,0 l/m 0,0 km/h O-SO 6,3 C 16,5 C 0,0 km/h
03.07.2011 22:00 13,0 C 66 % 1012,4 hPa 0,0 l/m 0,0 km/h O-NO 6,8 C 13,0 C 0,0 km/h
03.07.2011 23:00 12,5 C 69 % 1012,7 hPa 0,0 l/m 0,0 km/h NO 7,0 C 12,5 C 0,0 km/h
Min-Datum _ 02.07.11 03.07.11 28.06.11 - 27.06.11 - 02.07.11 02.07.11 27.06.11
_ Min-Zeit 05:30 18:30 19:30 - 00:30 - 05:30 05:30 00:30
Minimum _ 6,6 C 22 % 1010,6 hPa - 0,0 km/h - 4,4 C 6,6 C 0,0 km/h
Max-Datum _ 27.06.11 27.06.11 30.06.11 29.06.11 02.07.11 - 28.06.11 27.06.11 02.07.11
_ Max-Zeit 18:30 02:30 12:30 22:30 11:30 - 13:30 18:30 11:30
Maximum _ 41,1 C 86 % 1020,8 hPa 1,8 l/m 16,2 km/h
N-NO
- 21,8 C 41,1 C 9,0 km/h
N-NO
Durchschnitt _ 20,8 C 62 % 1016,1 hPa #5,7 l/m 1,4 km/h N-NO 12,3 C 20,8 C 0,8 km/h
www.sexauwetter.de